sensor_id;sensor_type;location;lat;lon;timestamp;P1;durP1;ratioP1;P2;durP2;ratioP2
80217;SDS011;69533;37.974;23.708;2023-04-28T00:02:13;3.05;;;2.00;;
80217;SDS011;69533;37.974;23.708;2023-04-28T00:04:39;3.20;;;1.85;;
80217;SDS011;69533;37.974;23.708;2023-04-28T00:07:04;4.50;;;2.10;;
80217;SDS011;69533;37.974;23.708;2023-04-28T00:09:30;7.43;;;2.10;;
80217;SDS011;69533;37.974;23.708;2023-04-28T00:11:56;2.70;;;2.05;;
80217;SDS011;69533;37.974;23.708;2023-04-28T00:14:22;3.10;;;1.85;;
80217;SDS011;69533;37.974;23.708;2023-04-28T00:16:48;3.55;;;1.70;;
80217;SDS011;69533;37.974;23.708;2023-04-28T00:19:13;2.88;;;1.92;;
80217;SDS011;69533;37.974;23.708;2023-04-28T00:21:39;9.73;;;2.55;;
80217;SDS011;69533;37.974;23.708;2023-04-28T00:24:05;3.30;;;1.85;;
80217;SDS011;69533;37.974;23.708;2023-04-28T00:26:31;4.93;;;1.85;;
80217;SDS011;69533;37.974;23.708;2023-04-28T00:28:56;3.40;;;1.80;;
80217;SDS011;69533;37.974;23.708;2023-04-28T00:31:22;4.82;;;1.90;;
80217;SDS011;69533;37.974;23.708;2023-04-28T00:33:48;5.40;;;2.10;;
80217;SDS011;69533;37.974;23.708;2023-04-28T00:36:13;5.82;;;2.40;;
80217;SDS011;69533;37.974;23.708;2023-04-28T00:38:39;4.45;;;1.70;;
80217;SDS011;69533;37.974;23.708;2023-04-28T00:41:05;5.20;;;1.98;;
80217;SDS011;69533;37.974;23.708;2023-04-28T00:43:42;5.35;;;2.03;;
80217;SDS011;69533;37.974;23.708;2023-04-28T00:46:09;4.07;;;1.80;;
80217;SDS011;69533;37.974;23.708;2023-04-28T00:48:37;4.57;;;2.10;;
80217;SDS011;69533;37.974;23.708;2023-04-28T00:51:03;4.82;;;2.55;;
80217;SDS011;69533;37.974;23.708;2023-04-28T00:53:30;3.65;;;2.03;;
80217;SDS011;69533;37.974;23.708;2023-04-28T00:55:56;4.13;;;1.77;;
80217;SDS011;69533;37.974;23.708;2023-04-28T00:58:22;3.83;;;2.22;;
80217;SDS011;69533;37.974;23.708;2023-04-28T01:00:49;3.22;;;1.80;;
80217;SDS011;69533;37.974;23.708;2023-04-28T01:03:14;4.80;;;2.03;;
80217;SDS011;69533;37.974;23.708;2023-04-28T01:05:40;4.18;;;2.40;;
80217;SDS011;69533;37.974;23.708;2023-04-28T01:08:06;10.15;;;2.45;;
80217;SDS011;69533;37.974;23.708;2023-04-28T01:10:32;4.25;;;2.22;;
80217;SDS011;69533;37.974;23.708;2023-04-28T01:12:57;5.70;;;2.17;;
80217;SDS011;69533;37.974;23.708;2023-04-28T01:15:23;2.60;;;2.30;;
80217;SDS011;69533;37.974;23.708;2023-04-28T01:17:49;4.95;;;1.98;;
80217;SDS011;69533;37.974;23.708;2023-04-28T01:20:15;4.72;;;2.70;;
80217;SDS011;69533;37.974;23.708;2023-04-28T01:22:40;5.18;;;1.83;;
80217;SDS011;69533;37.974;23.708;2023-04-28T01:25:06;3.50;;;2.10;;
80217;SDS011;69533;37.974;23.708;2023-04-28T01:27:32;3.53;;;2.20;;
80217;SDS011;69533;37.974;23.708;2023-04-28T01:29:58;5.10;;;2.10;;
80217;SDS011;69533;37.974;23.708;2023-04-28T01:32:23;4.93;;;2.20;;
80217;SDS011;69533;37.974;23.708;2023-04-28T01:34:49;4.22;;;2.10;;
80217;SDS011;69533;37.974;23.708;2023-04-28T01:37:15;3.38;;;2.10;;
80217;SDS011;69533;37.974;23.708;2023-04-28T01:39:41;4.50;;;2.20;;
80217;SDS011;69533;37.974;23.708;2023-04-28T01:42:07;9.65;;;2.35;;
80217;SDS011;69533;37.974;23.708;2023-04-28T01:44:33;3.90;;;2.38;;
80217;SDS011;69533;37.974;23.708;2023-04-28T01:46:59;8.25;;;2.20;;
80217;SDS011;69533;37.974;23.708;2023-04-28T01:49:24;5.38;;;2.38;;
80217;SDS011;69533;37.974;23.708;2023-04-28T01:51:50;3.35;;;2.22;;
80217;SDS011;69533;37.974;23.708;2023-04-28T01:54:16;7.18;;;2.85;;
80217;SDS011;69533;37.974;23.708;2023-04-28T01:56:41;2.58;;;1.80;;
80217;SDS011;69533;37.974;23.708;2023-04-28T01:59:07;3.47;;;2.75;;
80217;SDS011;69533;37.974;23.708;2023-04-28T02:01:33;3.75;;;2.50;;
80217;SDS011;69533;37.974;23.708;2023-04-28T02:03:58;5.65;;;2.33;;
80217;SDS011;69533;37.974;23.708;2023-04-28T02:06:24;5.25;;;2.30;;
80217;SDS011;69533;37.974;23.708;2023-04-28T02:08:51;3.63;;;1.98;;
80217;SDS011;69533;37.974;23.708;2023-04-28T02:11:17;4.60;;;2.10;;
80217;SDS011;69533;37.974;23.708;2023-04-28T02:13:43;6.13;;;2.30;;
80217;SDS011;69533;37.974;23.708;2023-04-28T02:16:09;3.60;;;2.30;;
80217;SDS011;69533;37.974;23.708;2023-04-28T02:18:34;3.25;;;2.40;;
80217;SDS011;69533;37.974;23.708;2023-04-28T02:21:10;4.30;;;2.42;;
80217;SDS011;69533;37.974;23.708;2023-04-28T02:23:36;4.07;;;2.20;;
80217;SDS011;69533;37.974;23.708;2023-04-28T02:26:02;2.85;;;2.15;;
80217;SDS011;69533;37.974;23.708;2023-04-28T02:28:28;3.47;;;2.15;;
80217;SDS011;69533;37.974;23.708;2023-04-28T02:31:06;3.70;;;2.17;;
80217;SDS011;69533;37.974;23.708;2023-04-28T02:33:33;5.82;;;2.20;;
80217;SDS011;69533;37.974;23.708;2023-04-28T02:36:00;3.95;;;2.20;;
80217;SDS011;69533;37.974;23.708;2023-04-28T02:38:27;3.20;;;2.88;;
80217;SDS011;69533;37.974;23.708;2023-04-28T02:40:59;3.92;;;2.10;;
80217;SDS011;69533;37.974;23.708;2023-04-28T02:43:27;3.95;;;2.20;;
80217;SDS011;69533;37.974;23.708;2023-04-28T02:45:53;3.35;;;2.78;;
80217;SDS011;69533;37.974;23.708;2023-04-28T02:48:19;5.85;;;2.45;;
80217;SDS011;69533;37.974;23.708;2023-04-28T02:50:45;2.72;;;1.92;;
80217;SDS011;69533;37.974;23.708;2023-04-28T02:53:11;4.47;;;2.28;;
80217;SDS011;69533;37.974;23.708;2023-04-28T02:55:37;3.50;;;1.95;;
80217;SDS011;69533;37.974;23.708;2023-04-28T02:58:02;5.00;;;2.78;;
80217;SDS011;69533;37.974;23.708;2023-04-28T03:00:28;3.85;;;2.20;;
80217;SDS011;69533;37.974;23.708;2023-04-28T03:02:54;3.47;;;2.03;;
80217;SDS011;69533;37.974;23.708;2023-04-28T03:05:20;4.38;;;2.50;;
80217;SDS011;69533;37.974;23.708;2023-04-28T03:07:45;5.43;;;2.78;;
80217;SDS011;69533;37.974;23.708;2023-04-28T03:10:11;8.25;;;2.22;;
80217;SDS011;69533;37.974;23.708;2023-04-28T03:12:37;4.32;;;2.03;;
80217;SDS011;69533;37.974;23.708;2023-04-28T03:15:02;5.10;;;2.15;;
80217;SDS011;69533;37.974;23.708;2023-04-28T03:17:28;6.88;;;2.40;;
80217;SDS011;69533;37.974;23.708;2023-04-28T03:19:54;5.60;;;2.38;;
80217;SDS011;69533;37.974;23.708;2023-04-28T03:22:20;6.18;;;2.80;;
80217;SDS011;69533;37.974;23.708;2023-04-28T03:24:45;5.18;;;2.33;;
80217;SDS011;69533;37.974;23.708;2023-04-28T03:27:11;6.78;;;2.47;;
80217;SDS011;69533;37.974;23.708;2023-04-28T03:29:37;4.40;;;2.63;;
80217;SDS011;69533;37.974;23.708;2023-04-28T03:32:02;4.55;;;2.00;;
80217;SDS011;69533;37.974;23.708;2023-04-28T03:34:28;3.25;;;2.05;;
80217;SDS011;69533;37.974;23.708;2023-04-28T03:36:54;3.35;;;1.80;;
80217;SDS011;69533;37.974;23.708;2023-04-28T03:39:20;6.00;;;2.38;;
80217;SDS011;69533;37.974;23.708;2023-04-28T03:41:45;3.97;;;2.38;;
80217;SDS011;69533;37.974;23.708;2023-04-28T03:44:11;8.02;;;2.40;;
80217;SDS011;69533;37.974;23.708;2023-04-28T03:46:37;2.67;;;2.08;;
80217;SDS011;69533;37.974;23.708;2023-04-28T03:49:04;3.28;;;1.98;;
80217;SDS011;69533;37.974;23.708;2023-04-28T03:51:30;3.92;;;2.20;;
80217;SDS011;69533;37.974;23.708;2023-04-28T03:53:57;4.28;;;1.85;;
80217;SDS011;69533;37.974;23.708;2023-04-28T03:56:22;21.30;;;3.72;;
80217;SDS011;69533;37.974;23.708;2023-04-28T03:58:48;11.75;;;3.22;;
80217;SDS011;69533;37.974;23.708;2023-04-28T04:01:14;14.38;;;3.75;;
80217;SDS011;69533;37.974;23.708;2023-04-28T04:03:40;15.75;;;2.95;;
80217;SDS011;69533;37.974;23.708;2023-04-28T04:06:05;9.98;;;2.90;;
80217;SDS011;69533;37.974;23.708;2023-04-28T04:08:31;10.18;;;2.30;;
80217;SDS011;69533;37.974;23.708;2023-04-28T04:10:57;9.85;;;2.70;;
80217;SDS011;69533;37.974;23.708;2023-04-28T04:13:26;13.88;;;3.17;;
80217;SDS011;69533;37.974;23.708;2023-04-28T04:15:52;13.55;;;3.63;;
80217;SDS011;69533;37.974;23.708;2023-04-28T04:18:17;13.13;;;2.90;;
80217;SDS011;69533;37.974;23.708;2023-04-28T04:20:43;18.52;;;3.38;;
80217;SDS011;69533;37.974;23.708;2023-04-28T04:23:09;7.63;;;2.70;;
80217;SDS011;69533;37.974;23.708;2023-04-28T04:25:35;10.00;;;2.97;;
80217;SDS011;69533;37.974;23.708;2023-04-28T04:28:01;13.07;;;2.83;;
80217;SDS011;69533;37.974;23.708;2023-04-28T04:30:26;16.67;;;3.17;;
80217;SDS011;69533;37.974;23.708;2023-04-28T04:32:52;22.63;;;4.15;;
80217;SDS011;69533;37.974;23.708;2023-04-28T04:35:18;75.60;;;9.68;;
80217;SDS011;69533;37.974;23.708;2023-04-28T04:37:43;38.85;;;5.78;;
80217;SDS011;69533;37.974;23.708;2023-04-28T04:40:09;34.72;;;5.15;;
80217;SDS011;69533;37.974;23.708;2023-04-28T04:42:35;53.70;;;7.85;;
80217;SDS011;69533;37.974;23.708;2023-04-28T04:45:01;50.05;;;6.38;;
80217;SDS011;69533;37.974;23.708;2023-04-28T04:47:26;47.22;;;7.47;;
80217;SDS011;69533;37.974;23.708;2023-04-28T04:49:52;31.75;;;6.13;;
80217;SDS011;69533;37.974;23.708;2023-04-28T04:52:18;17.17;;;5.43;;
80217;SDS011;69533;37.974;23.708;2023-04-28T04:54:44;21.58;;;4.38;;
80217;SDS011;69533;37.974;23.708;2023-04-28T04:57:10;24.85;;;4.18;;
80217;SDS011;69533;37.974;23.708;2023-04-28T04:59:37;30.95;;;5.18;;
80217;SDS011;69533;37.974;23.708;2023-04-28T05:02:02;17.77;;;5.10;;
80217;SDS011;69533;37.974;23.708;2023-04-28T05:04:28;24.25;;;3.85;;
80217;SDS011;69533;37.974;23.708;2023-04-28T05:06:54;20.65;;;5.00;;
80217;SDS011;69533;37.974;23.708;2023-04-28T05:09:19;18.23;;;4.25;;
80217;SDS011;69533;37.974;23.708;2023-04-28T05:11:47;17.42;;;4.50;;
80217;SDS011;69533;37.974;23.708;2023-04-28T05:14:13;14.80;;;3.22;;
80217;SDS011;69533;37.974;23.708;2023-04-28T05:16:39;21.15;;;4.68;;
80217;SDS011;69533;37.974;23.708;2023-04-28T05:19:06;13.32;;;4.70;;
80217;SDS011;69533;37.974;23.708;2023-04-28T05:21:31;13.82;;;4.50;;
80217;SDS011;69533;37.974;23.708;2023-04-28T05:23:57;11.93;;;3.47;;
80217;SDS011;69533;37.974;23.708;2023-04-28T05:26:23;8.38;;;3.60;;
80217;SDS011;69533;37.974;23.708;2023-04-28T05:28:49;9.35;;;4.10;;
80217;SDS011;69533;37.974;23.708;2023-04-28T05:31:15;14.15;;;4.68;;
80217;SDS011;69533;37.974;23.708;2023-04-28T05:33:41;7.72;;;3.50;;
80217;SDS011;69533;37.974;23.708;2023-04-28T05:36:07;14.32;;;3.35;;
80217;SDS011;69533;37.974;23.708;2023-04-28T05:38:33;7.00;;;3.55;;
80217;SDS011;69533;37.974;23.708;2023-04-28T05:41:00;6.82;;;2.92;;
80217;SDS011;69533;37.974;23.708;2023-04-28T05:43:26;7.95;;;3.17;;
80217;SDS011;69533;37.974;23.708;2023-04-28T05:45:52;9.40;;;3.22;;
80217;SDS011;69533;37.974;23.708;2023-04-28T05:48:18;5.63;;;2.70;;
80217;SDS011;69533;37.974;23.708;2023-04-28T05:50:44;5.95;;;2.35;;
80217;SDS011;69533;37.974;23.708;2023-04-28T05:53:10;5.93;;;2.83;;
80217;SDS011;69533;37.974;23.708;2023-04-28T05:55:35;10.68;;;3.05;;
80217;SDS011;69533;37.974;23.708;2023-04-28T05:58:02;3.72;;;2.10;;
80217;SDS011;69533;37.974;23.708;2023-04-28T06:00:27;6.13;;;2.55;;
80217;SDS011;69533;37.974;23.708;2023-04-28T06:02:53;6.38;;;2.58;;
80217;SDS011;69533;37.974;23.708;2023-04-28T06:05:19;4.68;;;2.10;;
80217;SDS011;69533;37.974;23.708;2023-04-28T06:07:45;4.57;;;1.83;;
80217;SDS011;69533;37.974;23.708;2023-04-28T06:10:11;6.70;;;2.00;;
80217;SDS011;69533;37.974;23.708;2023-04-28T06:12:36;6.38;;;2.65;;
80217;SDS011;69533;37.974;23.708;2023-04-28T06:15:03;4.32;;;2.38;;
80217;SDS011;69533;37.974;23.708;2023-04-28T06:17:29;3.08;;;1.95;;
80217;SDS011;69533;37.974;23.708;2023-04-28T06:19:56;6.75;;;2.20;;
80217;SDS011;69533;37.974;23.708;2023-04-28T06:22:26;4.90;;;2.30;;
80217;SDS011;69533;37.974;23.708;2023-04-28T06:24:51;4.28;;;2.45;;
80217;SDS011;69533;37.974;23.708;2023-04-28T06:27:17;4.78;;;2.00;;
80217;SDS011;69533;37.974;23.708;2023-04-28T06:29:43;5.63;;;1.80;;
80217;SDS011;69533;37.974;23.708;2023-04-28T06:32:09;2.83;;;1.70;;
80217;SDS011;69533;37.974;23.708;2023-04-28T06:34:35;5.60;;;2.08;;
80217;SDS011;69533;37.974;23.708;2023-04-28T06:37:01;4.63;;;2.22;;
80217;SDS011;69533;37.974;23.708;2023-04-28T06:39:27;7.50;;;2.50;;
80217;SDS011;69533;37.974;23.708;2023-04-28T06:41:53;6.15;;;2.10;;
80217;SDS011;69533;37.974;23.708;2023-04-28T06:44:19;5.10;;;2.20;;
80217;SDS011;69533;37.974;23.708;2023-04-28T06:46:45;6.00;;;2.40;;
80217;SDS011;69533;37.974;23.708;2023-04-28T06:49:10;6.82;;;2.50;;
80217;SDS011;69533;37.974;23.708;2023-04-28T06:51:36;4.88;;;2.10;;
80217;SDS011;69533;37.974;23.708;2023-04-28T06:54:02;8.07;;;2.70;;
80217;SDS011;69533;37.974;23.708;2023-04-28T06:56:28;5.45;;;2.63;;
80217;SDS011;69533;37.974;23.708;2023-04-28T06:58:54;4.28;;;2.50;;
80217;SDS011;69533;37.974;23.708;2023-04-28T07:01:21;6.03;;;2.65;;
80217;SDS011;69533;37.974;23.708;2023-04-28T07:03:47;6.93;;;2.33;;
80217;SDS011;69533;37.974;23.708;2023-04-28T07:06:12;6.07;;;2.80;;
80217;SDS011;69533;37.974;23.708;2023-04-28T07:08:38;3.53;;;2.45;;
80217;SDS011;69533;37.974;23.708;2023-04-28T07:11:05;7.65;;;2.67;;
80217;SDS011;69533;37.974;23.708;2023-04-28T07:13:31;7.78;;;2.67;;
80217;SDS011;69533;37.974;23.708;2023-04-28T07:15:57;7.63;;;2.63;;
80217;SDS011;69533;37.974;23.708;2023-04-28T07:18:23;4.85;;;2.60;;
80217;SDS011;69533;37.974;23.708;2023-04-28T07:20:49;4.22;;;2.40;;
80217;SDS011;69533;37.974;23.708;2023-04-28T07:23:15;5.13;;;2.58;;
80217;SDS011;69533;37.974;23.708;2023-04-28T07:25:41;8.93;;;2.83;;
80217;SDS011;69533;37.974;23.708;2023-04-28T07:28:07;4.72;;;2.45;;
80217;SDS011;69533;37.974;23.708;2023-04-28T07:30:33;5.07;;;2.30;;
80217;SDS011;69533;37.974;23.708;2023-04-28T07:32:59;7.93;;;2.90;;
80217;SDS011;69533;37.974;23.708;2023-04-28T07:35:26;3.30;;;2.55;;
80217;SDS011;69533;37.974;23.708;2023-04-28T07:37:52;6.60;;;2.97;;
80217;SDS011;69533;37.974;23.708;2023-04-28T07:40:18;5.38;;;2.65;;
80217;SDS011;69533;37.974;23.708;2023-04-28T07:42:45;8.27;;;3.03;;
80217;SDS011;69533;37.974;23.708;2023-04-28T07:45:11;6.75;;;3.10;;
80217;SDS011;69533;37.974;23.708;2023-04-28T07:47:38;9.20;;;3.47;;
80217;SDS011;69533;37.974;23.708;2023-04-28T07:50:04;6.25;;;2.80;;
80217;SDS011;69533;37.974;23.708;2023-04-28T07:52:31;6.43;;;2.97;;
80217;SDS011;69533;37.974;23.708;2023-04-28T07:54:57;7.22;;;3.03;;
80217;SDS011;69533;37.974;23.708;2023-04-28T07:57:23;5.15;;;3.05;;
80217;SDS011;69533;37.974;23.708;2023-04-28T07:59:50;8.15;;;2.55;;
80217;SDS011;69533;37.974;23.708;2023-04-28T08:02:16;6.45;;;3.00;;
80217;SDS011;69533;37.974;23.708;2023-04-28T08:04:44;6.63;;;3.42;;
80217;SDS011;69533;37.974;23.708;2023-04-28T08:07:10;11.50;;;3.00;;
80217;SDS011;69533;37.974;23.708;2023-04-28T08:09:36;7.68;;;3.45;;
80217;SDS011;69533;37.974;23.708;2023-04-28T08:12:02;5.82;;;3.03;;
80217;SDS011;69533;37.974;23.708;2023-04-28T08:14:28;7.32;;;2.75;;
80217;SDS011;69533;37.974;23.708;2023-04-28T08:16:53;4.78;;;2.25;;
80217;SDS011;69533;37.974;23.708;2023-04-28T08:19:19;5.60;;;2.97;;
80217;SDS011;69533;37.974;23.708;2023-04-28T08:21:45;5.95;;;2.40;;
80217;SDS011;69533;37.974;23.708;2023-04-28T08:24:11;7.28;;;3.25;;
80217;SDS011;69533;37.974;23.708;2023-04-28T08:26:37;5.10;;;2.55;;
80217;SDS011;69533;37.974;23.708;2023-04-28T08:29:03;5.30;;;2.50;;
80217;SDS011;69533;37.974;23.708;2023-04-28T08:31:28;6.38;;;3.10;;
80217;SDS011;69533;37.974;23.708;2023-04-28T08:33:54;6.03;;;2.60;;
80217;SDS011;69533;37.974;23.708;2023-04-28T08:36:20;3.92;;;2.70;;
80217;SDS011;69533;37.974;23.708;2023-04-28T08:38:47;3.42;;;2.42;;
80217;SDS011;69533;37.974;23.708;2023-04-28T08:41:16;6.88;;;2.83;;
80217;SDS011;69533;37.974;23.708;2023-04-28T08:43:43;4.72;;;2.60;;
80217;SDS011;69533;37.974;23.708;2023-04-28T08:46:09;8.15;;;3.25;;
80217;SDS011;69533;37.974;23.708;2023-04-28T08:48:39;5.57;;;2.70;;
80217;SDS011;69533;37.974;23.708;2023-04-28T08:51:06;5.90;;;2.33;;
80217;SDS011;69533;37.974;23.708;2023-04-28T08:53:35;5.55;;;2.83;;
80217;SDS011;69533;37.974;23.708;2023-04-28T08:56:04;7.38;;;3.33;;
80217;SDS011;69533;37.974;23.708;2023-04-28T08:58:32;4.55;;;2.70;;
80217;SDS011;69533;37.974;23.708;2023-04-28T09:00:59;6.07;;;2.20;;
80217;SDS011;69533;37.974;23.708;2023-04-28T09:03:28;5.60;;;2.42;;
80217;SDS011;69533;37.974;23.708;2023-04-28T09:05:55;2.70;;;2.17;;
80217;SDS011;69533;37.974;23.708;2023-04-28T09:08:21;4.47;;;2.60;;
80217;SDS011;69533;37.974;23.708;2023-04-28T09:10:47;3.95;;;2.45;;
80217;SDS011;69533;37.974;23.708;2023-04-28T09:13:25;6.32;;;2.35;;
80217;SDS011;69533;37.974;23.708;2023-04-28T09:15:50;5.65;;;2.50;;
80217;SDS011;69533;37.974;23.708;2023-04-28T09:20:50;5.30;;;2.42;;
80217;SDS011;69533;37.974;23.708;2023-04-28T09:26:03;3.75;;;2.15;;
80217;SDS011;69533;37.974;23.708;2023-04-28T09:28:30;5.10;;;2.50;;
80217;SDS011;69533;37.974;23.708;2023-04-28T09:30:57;4.07;;;2.35;;
80217;SDS011;69533;37.974;23.708;2023-04-28T09:33:23;5.47;;;2.45;;
80217;SDS011;69533;37.974;23.708;2023-04-28T09:35:49;3.90;;;2.33;;
80217;SDS011;69533;37.974;23.708;2023-04-28T09:38:17;4.05;;;2.22;;
80217;SDS011;69533;37.974;23.708;2023-04-28T09:40:48;3.53;;;2.17;;
80217;SDS011;69533;37.974;23.708;2023-04-28T09:43:22;4.88;;;2.55;;
80217;SDS011;69533;37.974;23.708;2023-04-28T09:45:47;5.10;;;2.20;;
80217;SDS011;69533;37.974;23.708;2023-04-28T09:48:13;3.42;;;2.05;;
80217;SDS011;69533;37.974;23.708;2023-04-28T09:50:39;4.82;;;2.20;;
80217;SDS011;69533;37.974;23.708;2023-04-28T09:53:07;2.97;;;1.90;;
80217;SDS011;69533;37.974;23.708;2023-04-28T09:55:37;2.75;;;1.80;;
80217;SDS011;69533;37.974;23.708;2023-04-28T09:58:08;3.22;;;1.98;;
80217;SDS011;69533;37.974;23.708;2023-04-28T10:00:35;2.92;;;2.28;;
80217;SDS011;69533;37.974;23.708;2023-04-28T10:03:03;3.75;;;1.88;;
80217;SDS011;69533;37.974;23.708;2023-04-28T10:05:29;5.93;;;2.40;;
80217;SDS011;69533;37.974;23.708;2023-04-28T10:07:56;4.70;;;2.20;;
80217;SDS011;69533;37.974;23.708;2023-04-28T10:10:24;2.50;;;1.90;;
80217;SDS011;69533;37.974;23.708;2023-04-28T10:12:52;4.43;;;2.42;;
80217;SDS011;69533;37.974;23.708;2023-04-28T10:15:18;2.58;;;1.85;;
80217;SDS011;69533;37.974;23.708;2023-04-28T10:17:45;4.45;;;2.17;;
80217;SDS011;69533;37.974;23.708;2023-04-28T10:20:14;3.40;;;1.98;;
80217;SDS011;69533;37.974;23.708;2023-04-28T10:25:34;7.15;;;2.53;;
80217;SDS011;69533;37.974;23.708;2023-04-28T10:28:03;4.25;;;2.25;;
80217;SDS011;69533;37.974;23.708;2023-04-28T10:30:31;5.28;;;2.25;;
80217;SDS011;69533;37.974;23.708;2023-04-28T10:33:45;4.05;;;2.10;;
80217;SDS011;69533;37.974;23.708;2023-04-28T10:35:47;4.55;;;2.20;;
80217;SDS011;69533;37.974;23.708;2023-04-28T10:38:14;3.53;;;1.92;;
80217;SDS011;69533;37.974;23.708;2023-04-28T10:40:42;4.07;;;1.92;;
80217;SDS011;69533;37.974;23.708;2023-04-28T10:43:13;2.22;;;1.80;;
80217;SDS011;69533;37.974;23.708;2023-04-28T10:46:00;2.28;;;1.77;;
80217;SDS011;69533;37.974;23.708;2023-04-28T10:58:43;3.80;;;2.45;;
80217;SDS011;69533;37.974;23.708;2023-04-28T11:01:30;4.28;;;2.00;;
80217;SDS011;69533;37.974;23.708;2023-04-28T11:04:07;3.22;;;1.98;;
80217;SDS011;69533;37.974;23.708;2023-04-28T11:06:42;4.03;;;1.98;;
80217;SDS011;69533;37.974;23.708;2023-04-28T11:17:03;4.03;;;2.15;;
80217;SDS011;69533;37.974;23.708;2023-04-28T11:19:35;3.00;;;1.73;;
80217;SDS011;69533;37.974;23.708;2023-04-28T11:22:04;7.65;;;2.20;;
80217;SDS011;69533;37.974;23.708;2023-04-28T11:24:37;3.30;;;2.03;;
80217;SDS011;69533;37.974;23.708;2023-04-28T11:27:03;3.45;;;2.00;;
80217;SDS011;69533;37.974;23.708;2023-04-28T11:29:33;7.63;;;2.35;;
80217;SDS011;69533;37.974;23.708;2023-04-28T11:32:03;2.88;;;2.13;;
80217;SDS011;69533;37.974;23.708;2023-04-28T11:34:29;5.70;;;2.25;;
80217;SDS011;69533;37.974;23.708;2023-04-28T11:36:55;5.15;;;1.83;;
80217;SDS011;69533;37.974;23.708;2023-04-28T11:39:39;7.93;;;2.95;;
80217;SDS011;69533;37.974;23.708;2023-04-28T11:42:09;3.80;;;2.10;;
80217;SDS011;69533;37.974;23.708;2023-04-28T11:44:35;5.55;;;2.28;;
80217;SDS011;69533;37.974;23.708;2023-04-28T11:47:01;4.70;;;2.70;;
80217;SDS011;69533;37.974;23.708;2023-04-28T11:49:28;3.53;;;2.17;;
80217;SDS011;69533;37.974;23.708;2023-04-28T11:51:57;4.35;;;2.30;;
80217;SDS011;69533;37.974;23.708;2023-04-28T11:54:30;4.88;;;2.20;;
80217;SDS011;69533;37.974;23.708;2023-04-28T11:56:58;6.47;;;2.30;;
80217;SDS011;69533;37.974;23.708;2023-04-28T11:59:29;12.57;;;2.80;;
80217;SDS011;69533;37.974;23.708;2023-04-28T12:01:58;4.63;;;2.08;;
80217;SDS011;69533;37.974;23.708;2023-04-28T12:04:32;4.47;;;2.33;;
80217;SDS011;69533;37.974;23.708;2023-04-28T12:07:09;5.10;;;2.00;;
80217;SDS011;69533;37.974;23.708;2023-04-28T12:09:36;4.85;;;2.42;;
80217;SDS011;69533;37.974;23.708;2023-04-28T12:12:05;5.10;;;2.35;;
80217;SDS011;69533;37.974;23.708;2023-04-28T12:14:52;7.45;;;2.35;;
80217;SDS011;69533;37.974;23.708;2023-04-28T12:17:29;5.07;;;2.40;;
80217;SDS011;69533;37.974;23.708;2023-04-28T12:19:57;7.43;;;2.35;;
80217;SDS011;69533;37.974;23.708;2023-04-28T12:22:28;6.13;;;2.30;;
80217;SDS011;69533;37.974;23.708;2023-04-28T12:25:27;7.40;;;3.00;;
80217;SDS011;69533;37.974;23.708;2023-04-28T12:30:41;4.40;;;2.10;;
80217;SDS011;69533;37.974;23.708;2023-04-28T12:33:26;3.65;;;2.63;;
80217;SDS011;69533;37.974;23.708;2023-04-28T12:35:53;6.20;;;2.45;;
80217;SDS011;69533;37.974;23.708;2023-04-28T12:38:22;2.92;;;2.22;;
80217;SDS011;69533;37.974;23.708;2023-04-28T12:40:49;8.13;;;2.10;;
80217;SDS011;69533;37.974;23.708;2023-04-28T12:43:15;4.10;;;2.45;;
80217;SDS011;69533;37.974;23.708;2023-04-28T12:45:40;3.63;;;2.08;;
80217;SDS011;69533;37.974;23.708;2023-04-28T12:48:06;3.72;;;2.00;;
80217;SDS011;69533;37.974;23.708;2023-04-28T12:50:32;4.85;;;2.40;;
80217;SDS011;69533;37.974;23.708;2023-04-28T12:52:58;4.55;;;2.35;;
80217;SDS011;69533;37.974;23.708;2023-04-28T12:55:24;3.97;;;2.15;;
80217;SDS011;69533;37.974;23.708;2023-04-28T12:57:53;3.45;;;2.10;;
80217;SDS011;69533;37.974;23.708;2023-04-28T13:00:19;5.05;;;1.90;;
80217;SDS011;69533;37.974;23.708;2023-04-28T13:02:48;6.78;;;2.65;;
80217;SDS011;69533;37.974;23.708;2023-04-28T13:05:14;9.65;;;2.40;;
80217;SDS011;69533;37.974;23.708;2023-04-28T13:07:40;4.55;;;2.42;;
80217;SDS011;69533;37.974;23.708;2023-04-28T13:10:06;6.18;;;2.30;;
80217;SDS011;69533;37.974;23.708;2023-04-28T13:12:32;5.38;;;3.60;;
80217;SDS011;69533;37.974;23.708;2023-04-28T13:15:01;3.65;;;2.70;;
80217;SDS011;69533;37.974;23.708;2023-04-28T13:17:28;5.30;;;3.30;;
80217;SDS011;69533;37.974;23.708;2023-04-28T13:19:54;4.13;;;3.03;;
80217;SDS011;69533;37.974;23.708;2023-04-28T13:22:20;5.63;;;2.75;;
80217;SDS011;69533;37.974;23.708;2023-04-28T13:24:46;8.18;;;3.97;;
80217;SDS011;69533;37.974;23.708;2023-04-28T13:27:12;5.20;;;3.83;;
80217;SDS011;69533;37.974;23.708;2023-04-28T13:29:38;5.82;;;3.50;;
80217;SDS011;69533;37.974;23.708;2023-04-28T13:32:04;5.47;;;3.90;;
80217;SDS011;69533;37.974;23.708;2023-04-28T13:34:30;4.88;;;3.50;;
80217;SDS011;69533;37.974;23.708;2023-04-28T13:36:56;5.30;;;3.70;;
80217;SDS011;69533;37.974;23.708;2023-04-28T13:39:22;4.63;;;2.92;;
80217;SDS011;69533;37.974;23.708;2023-04-28T13:41:47;3.80;;;2.92;;
80217;SDS011;69533;37.974;23.708;2023-04-28T13:44:14;5.65;;;3.47;;
80217;SDS011;69533;37.974;23.708;2023-04-28T13:46:40;4.10;;;3.40;;
80217;SDS011;69533;37.974;23.708;2023-04-28T13:49:06;4.18;;;3.10;;
80217;SDS011;69533;37.974;23.708;2023-04-28T13:51:34;4.47;;;2.95;;
80217;SDS011;69533;37.974;23.708;2023-04-28T13:54:00;4.90;;;3.05;;
80217;SDS011;69533;37.974;23.708;2023-04-28T13:56:29;4.63;;;3.25;;
80217;SDS011;69533;37.974;23.708;2023-04-28T13:58:56;5.60;;;3.20;;
80217;SDS011;69533;37.974;23.708;2023-04-28T14:01:22;3.80;;;3.00;;
80217;SDS011;69533;37.974;23.708;2023-04-28T14:03:49;4.28;;;3.00;;
80217;SDS011;69533;37.974;23.708;2023-04-28T14:06:14;3.28;;;2.50;;
80217;SDS011;69533;37.974;23.708;2023-04-28T14:08:47;4.32;;;2.88;;
80217;SDS011;69533;37.974;23.708;2023-04-28T14:11:12;2.90;;;2.08;;
80217;SDS011;69533;37.974;23.708;2023-04-28T14:13:38;3.45;;;2.90;;
80217;SDS011;69533;37.974;23.708;2023-04-28T14:16:05;4.38;;;2.03;;
80217;SDS011;69533;37.974;23.708;2023-04-28T14:18:31;2.58;;;2.10;;
80217;SDS011;69533;37.974;23.708;2023-04-28T14:20:57;3.85;;;2.15;;
80217;SDS011;69533;37.974;23.708;2023-04-28T14:23:23;2.97;;;2.17;;
80217;SDS011;69533;37.974;23.708;2023-04-28T14:25:52;4.13;;;2.63;;
80217;SDS011;69533;37.974;23.708;2023-04-28T14:28:22;2.40;;;2.03;;
80217;SDS011;69533;37.974;23.708;2023-04-28T14:30:48;2.10;;;1.90;;
80217;SDS011;69533;37.974;23.708;2023-04-28T14:33:16;5.55;;;2.55;;
80217;SDS011;69533;37.974;23.708;2023-04-28T14:35:42;2.42;;;1.70;;
80217;SDS011;69533;37.974;23.708;2023-04-28T14:38:08;2.92;;;1.80;;
80217;SDS011;69533;37.974;23.708;2023-04-28T14:40:34;1.90;;;1.70;;
80217;SDS011;69533;37.974;23.708;2023-04-28T14:42:59;1.60;;;1.50;;
80217;SDS011;69533;37.974;23.708;2023-04-28T14:45:25;6.18;;;2.47;;
80217;SDS011;69533;37.974;23.708;2023-04-28T14:47:51;1.92;;;1.63;;
80217;SDS011;69533;37.974;23.708;2023-04-28T14:50:17;2.90;;;1.63;;
80217;SDS011;69533;37.974;23.708;2023-04-28T14:52:43;3.92;;;1.55;;
80217;SDS011;69533;37.974;23.708;2023-04-28T14:55:09;2.95;;;1.45;;
80217;SDS011;69533;37.974;23.708;2023-04-28T14:57:34;3.63;;;1.60;;
80217;SDS011;69533;37.974;23.708;2023-04-28T15:00:03;2.78;;;1.67;;
80217;SDS011;69533;37.974;23.708;2023-04-28T15:02:32;1.70;;;1.52;;